sensor_id;sensor_type;location;lat;lon;timestamp;temperature;humidity
11035;DHT22;5571;48.110;-1.706;2023-06-04T00:01:22;17.80;99.90
11035;DHT22;5571;48.110;-1.706;2023-06-04T00:03:48;17.80;99.90
11035;DHT22;5571;48.110;-1.706;2023-06-04T00:06:14;17.80;99.90
11035;DHT22;5571;48.110;-1.706;2023-06-04T00:08:39;17.70;99.90
11035;DHT22;5571;48.110;-1.706;2023-06-04T00:11:05;17.70;99.90
11035;DHT22;5571;48.110;-1.706;2023-06-04T00:13:31;17.70;99.90
11035;DHT22;5571;48.110;-1.706;2023-06-04T00:15:56;17.70;99.90
11035;DHT22;5571;48.110;-1.706;2023-06-04T00:18:22;17.70;99.90
11035;DHT22;5571;48.110;-1.706;2023-06-04T00:20:47;17.60;99.90
11035;DHT22;5571;48.110;-1.706;2023-06-04T00:23:13;17.60;99.90
11035;DHT22;5571;48.110;-1.706;2023-06-04T00:25:39;17.60;99.90
11035;DHT22;5571;48.110;-1.706;2023-06-04T00:28:05;17.60;99.90
11035;DHT22;5571;48.110;-1.706;2023-06-04T00:30:31;17.50;99.90
11035;DHT22;5571;48.110;-1.706;2023-06-04T00:32:57;17.50;99.90
11035;DHT22;5571;48.110;-1.706;2023-06-04T00:35:22;17.50;99.90
11035;DHT22;5571;48.110;-1.706;2023-06-04T00:37:48;17.50;99.90
11035;DHT22;5571;48.110;-1.706;2023-06-04T00:40:14;17.50;99.90
11035;DHT22;5571;48.110;-1.706;2023-06-04T00:42:40;17.40;99.90
11035;DHT22;5571;48.110;-1.706;2023-06-04T00:45:06;17.40;99.90
11035;DHT22;5571;48.110;-1.706;2023-06-04T00:47:35;17.30;99.90
11035;DHT22;5571;48.110;-1.706;2023-06-04T00:50:01;17.30;99.90
11035;DHT22;5571;48.110;-1.706;2023-06-04T00:52:26;17.30;99.90
11035;DHT22;5571;48.110;-1.706;2023-06-04T00:54:52;17.20;99.90
11035;DHT22;5571;48.110;-1.706;2023-06-04T00:57:21;17.20;99.90
11035;DHT22;5571;48.110;-1.706;2023-06-04T00:59:47;17.20;99.90
11035;DHT22;5571;48.110;-1.706;2023-06-04T01:07:15;17.10;99.90
11035;DHT22;5571;48.110;-1.706;2023-06-04T01:09:43;17.10;99.90
11035;DHT22;5571;48.110;-1.706;2023-06-04T01:12:10;17.10;99.90
11035;DHT22;5571;48.110;-1.706;2023-06-04T01:14:36;17.10;99.90
11035;DHT22;5571;48.110;-1.706;2023-06-04T01:17:40;17.00;99.90
11035;DHT22;5571;48.110;-1.706;2023-06-04T01:25:34;16.90;99.90
11035;DHT22;5571;48.110;-1.706;2023-06-04T01:28:02;16.90;99.90
11035;DHT22;5571;48.110;-1.706;2023-06-04T01:30:31;16.90;99.90
11035;DHT22;5571;48.110;-1.706;2023-06-04T01:33:01;16.90;99.90
11035;DHT22;5571;48.110;-1.706;2023-06-04T01:35:28;16.90;99.90
11035;DHT22;5571;48.110;-1.706;2023-06-04T01:37:55;16.90;99.90
11035;DHT22;5571;48.110;-1.706;2023-06-04T01:40:21;16.90;99.90
11035;DHT22;5571;48.110;-1.706;2023-06-04T01:42:46;16.90;99.90
11035;DHT22;5571;48.110;-1.706;2023-06-04T01:45:12;16.90;99.90
11035;DHT22;5571;48.110;-1.706;2023-06-04T01:47:38;16.80;99.90
11035;DHT22;5571;48.110;-1.706;2023-06-04T01:50:07;16.80;99.90
11035;DHT22;5571;48.110;-1.706;2023-06-04T01:52:39;16.80;99.90
11035;DHT22;5571;48.110;-1.706;2023-06-04T01:55:06;16.80;99.90
11035;DHT22;5571;48.110;-1.706;2023-06-04T01:57:36;16.80;99.90
11035;DHT22;5571;48.110;-1.706;2023-06-04T02:00:02;16.80;99.90
11035;DHT22;5571;48.110;-1.706;2023-06-04T02:02:29;16.80;99.90
11035;DHT22;5571;48.110;-1.706;2023-06-04T02:04:55;16.80;99.90
11035;DHT22;5571;48.110;-1.706;2023-06-04T02:07:20;16.80;99.90
11035;DHT22;5571;48.110;-1.706;2023-06-04T02:09:47;16.80;99.90
11035;DHT22;5571;48.110;-1.706;2023-06-04T02:12:13;16.80;99.90
11035;DHT22;5571;48.110;-1.706;2023-06-04T02:14:38;16.70;99.90
11035;DHT22;5571;48.110;-1.706;2023-06-04T02:17:05;16.70;99.90
11035;DHT22;5571;48.110;-1.706;2023-06-04T02:19:44;16.70;99.90
11035;DHT22;5571;48.110;-1.706;2023-06-04T02:22:11;16.60;99.90
11035;DHT22;5571;48.110;-1.706;2023-06-04T02:24:38;16.60;99.90
11035;DHT22;5571;48.110;-1.706;2023-06-04T02:27:05;16.60;99.90
11035;DHT22;5571;48.110;-1.706;2023-06-04T02:29:31;16.60;99.90
11035;DHT22;5571;48.110;-1.706;2023-06-04T02:31:57;16.60;99.90
11035;DHT22;5571;48.110;-1.706;2023-06-04T02:34:23;16.60;99.90
11035;DHT22;5571;48.110;-1.706;2023-06-04T02:36:49;16.60;99.90
11035;DHT22;5571;48.110;-1.706;2023-06-04T02:39:16;16.60;99.90
11035;DHT22;5571;48.110;-1.706;2023-06-04T02:41:42;16.50;99.90
11035;DHT22;5571;48.110;-1.706;2023-06-04T02:44:07;16.50;99.90
11035;DHT22;5571;48.110;-1.706;2023-06-04T02:46:33;16.40;99.90
11035;DHT22;5571;48.110;-1.706;2023-06-04T02:48:58;16.40;99.90
11035;DHT22;5571;48.110;-1.706;2023-06-04T02:51:24;16.40;99.90
11035;DHT22;5571;48.110;-1.706;2023-06-04T02:53:50;16.40;99.90
11035;DHT22;5571;48.110;-1.706;2023-06-04T02:56:16;16.40;99.90
11035;DHT22;5571;48.110;-1.706;2023-06-04T02:58:51;16.40;99.90
11035;DHT22;5571;48.110;-1.706;2023-06-04T03:01:25;16.40;99.90
11035;DHT22;5571;48.110;-1.706;2023-06-04T03:03:52;16.40;99.90
11035;DHT22;5571;48.110;-1.706;2023-06-04T03:06:19;16.30;99.90
11035;DHT22;5571;48.110;-1.706;2023-06-04T03:08:50;16.30;99.90
11035;DHT22;5571;48.110;-1.706;2023-06-04T03:11:17;16.30;99.90
11035;DHT22;5571;48.110;-1.706;2023-06-04T03:13:44;16.30;99.90
11035;DHT22;5571;48.110;-1.706;2023-06-04T03:16:10;16.20;99.90
11035;DHT22;5571;48.110;-1.706;2023-06-04T03:18:36;16.20;99.90
11035;DHT22;5571;48.110;-1.706;2023-06-04T03:21:03;16.20;99.90
11035;DHT22;5571;48.110;-1.706;2023-06-04T03:23:29;16.20;99.90
11035;DHT22;5571;48.110;-1.706;2023-06-04T03:25:54;16.20;99.90
11035;DHT22;5571;48.110;-1.706;2023-06-04T03:28:20;16.10;99.90
11035;DHT22;5571;48.110;-1.706;2023-06-04T03:30:46;16.20;99.90
11035;DHT22;5571;48.110;-1.706;2023-06-04T03:33:11;16.20;99.90
11035;DHT22;5571;48.110;-1.706;2023-06-04T03:35:39;16.20;99.90
11035;DHT22;5571;48.110;-1.706;2023-06-04T03:38:05;16.10;99.90
11035;DHT22;5571;48.110;-1.706;2023-06-04T03:40:31;16.10;99.90
11035;DHT22;5571;48.110;-1.706;2023-06-04T03:42:56;16.10;99.90
11035;DHT22;5571;48.110;-1.706;2023-06-04T03:45:22;16.10;99.90
11035;DHT22;5571;48.110;-1.706;2023-06-04T03:47:47;16.10;99.90
11035;DHT22;5571;48.110;-1.706;2023-06-04T03:50:13;16.00;99.90
11035;DHT22;5571;48.110;-1.706;2023-06-04T03:52:39;16.00;99.90
11035;DHT22;5571;48.110;-1.706;2023-06-04T03:55:04;16.00;99.90
11035;DHT22;5571;48.110;-1.706;2023-06-04T03:57:30;15.90;99.90
11035;DHT22;5571;48.110;-1.706;2023-06-04T03:59:56;15.90;99.90
11035;DHT22;5571;48.110;-1.706;2023-06-04T04:02:22;15.90;99.90
11035;DHT22;5571;48.110;-1.706;2023-06-04T04:04:47;15.90;99.90
11035;DHT22;5571;48.110;-1.706;2023-06-04T04:07:13;15.90;99.90
11035;DHT22;5571;48.110;-1.706;2023-06-04T04:09:39;15.90;99.90
11035;DHT22;5571;48.110;-1.706;2023-06-04T04:12:05;15.90;99.90
11035;DHT22;5571;48.110;-1.706;2023-06-04T04:14:31;15.90;99.90
11035;DHT22;5571;48.110;-1.706;2023-06-04T04:16:56;15.80;99.90
11035;DHT22;5571;48.110;-1.706;2023-06-04T04:19:22;15.80;99.90
11035;DHT22;5571;48.110;-1.706;2023-06-04T04:21:47;15.80;99.90
11035;DHT22;5571;48.110;-1.706;2023-06-04T04:24:24;15.80;99.90
11035;DHT22;5571;48.110;-1.706;2023-06-04T04:26:50;15.70;99.90
11035;DHT22;5571;48.110;-1.706;2023-06-04T04:29:19;15.80;99.90
11035;DHT22;5571;48.110;-1.706;2023-06-04T04:31:51;15.80;99.90
11035;DHT22;5571;48.110;-1.706;2023-06-04T04:34:17;15.80;99.90
11035;DHT22;5571;48.110;-1.706;2023-06-04T04:36:46;15.80;99.90
11035;DHT22;5571;48.110;-1.706;2023-06-04T04:39:22;15.80;99.90
11035;DHT22;5571;48.110;-1.706;2023-06-04T04:41:48;15.80;99.90
11035;DHT22;5571;48.110;-1.706;2023-06-04T04:44:14;15.70;99.90
11035;DHT22;5571;48.110;-1.706;2023-06-04T04:46:39;15.80;99.90
11035;DHT22;5571;48.110;-1.706;2023-06-04T04:49:05;15.70;99.90
11035;DHT22;5571;48.110;-1.706;2023-06-04T04:51:31;15.80;99.90
11035;DHT22;5571;48.110;-1.706;2023-06-04T04:53:57;15.70;99.90
11035;DHT22;5571;48.110;-1.706;2023-06-04T04:56:23;15.70;99.90
11035;DHT22;5571;48.110;-1.706;2023-06-04T04:58:49;15.80;99.90
11035;DHT22;5571;48.110;-1.706;2023-06-04T05:01:14;15.80;99.90
11035;DHT22;5571;48.110;-1.706;2023-06-04T05:03:40;15.80;99.90
11035;DHT22;5571;48.110;-1.706;2023-06-04T05:06:06;15.80;99.90
11035;DHT22;5571;48.110;-1.706;2023-06-04T05:08:31;15.70;99.90
11035;DHT22;5571;48.110;-1.706;2023-06-04T05:10:57;15.80;99.90
11035;DHT22;5571;48.110;-1.706;2023-06-04T05:13:22;15.80;99.90
11035;DHT22;5571;48.110;-1.706;2023-06-04T05:15:48;15.80;99.90
11035;DHT22;5571;48.110;-1.706;2023-06-04T05:18:18;15.80;99.90
11035;DHT22;5571;48.110;-1.706;2023-06-04T05:20:46;15.90;99.90
11035;DHT22;5571;48.110;-1.706;2023-06-04T05:23:12;15.90;99.90
11035;DHT22;5571;48.110;-1.706;2023-06-04T05:25:38;16.00;99.90
11035;DHT22;5571;48.110;-1.706;2023-06-04T05:28:04;16.00;99.90
11035;DHT22;5571;48.110;-1.706;2023-06-04T05:30:31;16.10;99.90
11035;DHT22;5571;48.110;-1.706;2023-06-04T05:32:57;16.10;99.90
11035;DHT22;5571;48.110;-1.706;2023-06-04T05:35:22;16.10;99.90
11035;DHT22;5571;48.110;-1.706;2023-06-04T05:37:48;16.20;99.90
11035;DHT22;5571;48.110;-1.706;2023-06-04T05:40:20;16.20;99.90
11035;DHT22;5571;48.110;-1.706;2023-06-04T05:42:47;16.30;99.90
11035;DHT22;5571;48.110;-1.706;2023-06-04T05:45:12;16.30;99.90
11035;DHT22;5571;48.110;-1.706;2023-06-04T05:47:38;16.40;99.90
11035;DHT22;5571;48.110;-1.706;2023-06-04T05:50:04;16.30;99.90
11035;DHT22;5571;48.110;-1.706;2023-06-04T05:52:32;16.40;99.90
11035;DHT22;5571;48.110;-1.706;2023-06-04T05:54:58;16.50;99.90
11035;DHT22;5571;48.110;-1.706;2023-06-04T05:57:24;16.50;99.90
11035;DHT22;5571;48.110;-1.706;2023-06-04T05:59:49;16.50;99.90
11035;DHT22;5571;48.110;-1.706;2023-06-04T06:02:15;16.50;99.90
11035;DHT22;5571;48.110;-1.706;2023-06-04T06:04:41;16.60;99.90
11035;DHT22;5571;48.110;-1.706;2023-06-04T06:07:07;16.70;99.90
11035;DHT22;5571;48.110;-1.706;2023-06-04T06:09:33;16.70;99.90
11035;DHT22;5571;48.110;-1.706;2023-06-04T06:11:58;16.80;99.90
11035;DHT22;5571;48.110;-1.706;2023-06-04T06:14:24;16.90;99.90
11035;DHT22;5571;48.110;-1.706;2023-06-04T06:16:50;16.90;99.90
11035;DHT22;5571;48.110;-1.706;2023-06-04T06:19:16;17.00;99.90
11035;DHT22;5571;48.110;-1.706;2023-06-04T06:21:42;17.00;99.90
11035;DHT22;5571;48.110;-1.706;2023-06-04T06:24:08;17.10;99.90
11035;DHT22;5571;48.110;-1.706;2023-06-04T06:26:33;17.20;99.90
11035;DHT22;5571;48.110;-1.706;2023-06-04T06:28:59;17.20;99.90
11035;DHT22;5571;48.110;-1.706;2023-06-04T06:31:25;17.20;99.90
11035;DHT22;5571;48.110;-1.706;2023-06-04T06:33:51;17.20;99.90
11035;DHT22;5571;48.110;-1.706;2023-06-04T06:36:17;17.20;99.90
11035;DHT22;5571;48.110;-1.706;2023-06-04T06:38:47;17.30;99.90
11035;DHT22;5571;48.110;-1.706;2023-06-04T06:41:12;17.40;99.90
11035;DHT22;5571;48.110;-1.706;2023-06-04T06:43:38;17.30;99.90
11035;DHT22;5571;48.110;-1.706;2023-06-04T06:46:04;17.40;99.90
11035;DHT22;5571;48.110;-1.706;2023-06-04T06:48:29;17.50;99.90
11035;DHT22;5571;48.110;-1.706;2023-06-04T06:50:55;17.50;99.90
11035;DHT22;5571;48.110;-1.706;2023-06-04T06:53:21;17.60;99.90
11035;DHT22;5571;48.110;-1.706;2023-06-04T06:55:46;17.60;99.90
11035;DHT22;5571;48.110;-1.706;2023-06-04T06:58:12;17.60;99.90
11035;DHT22;5571;48.110;-1.706;2023-06-04T07:00:38;17.70;99.90
11035;DHT22;5571;48.110;-1.706;2023-06-04T07:03:03;17.70;99.90
11035;DHT22;5571;48.110;-1.706;2023-06-04T07:05:29;17.70;99.90
11035;DHT22;5571;48.110;-1.706;2023-06-04T07:07:55;17.80;99.90
11035;DHT22;5571;48.110;-1.706;2023-06-04T07:10:22;17.80;99.90
11035;DHT22;5571;48.110;-1.706;2023-06-04T07:12:48;17.90;99.90
11035;DHT22;5571;48.110;-1.706;2023-06-04T07:15:14;18.00;99.90
11035;DHT22;5571;48.110;-1.706;2023-06-04T07:17:40;18.00;99.90
11035;DHT22;5571;48.110;-1.706;2023-06-04T07:20:06;18.20;99.90
11035;DHT22;5571;48.110;-1.706;2023-06-04T07:22:33;18.20;99.90
11035;DHT22;5571;48.110;-1.706;2023-06-04T07:24:59;18.30;99.90
11035;DHT22;5571;48.110;-1.706;2023-06-04T07:27:25;18.20;99.90
11035;DHT22;5571;48.110;-1.706;2023-06-04T07:29:51;18.30;99.90
11035;DHT22;5571;48.110;-1.706;2023-06-04T07:32:17;18.40;99.90
11035;DHT22;5571;48.110;-1.706;2023-06-04T07:34:43;18.50;99.90
11035;DHT22;5571;48.110;-1.706;2023-06-04T07:37:08;18.60;99.90
11035;DHT22;5571;48.110;-1.706;2023-06-04T07:39:35;18.70;99.90
11035;DHT22;5571;48.110;-1.706;2023-06-04T07:42:01;18.70;99.90
11035;DHT22;5571;48.110;-1.706;2023-06-04T07:44:26;18.80;99.90
11035;DHT22;5571;48.110;-1.706;2023-06-04T07:46:52;18.80;99.90
11035;DHT22;5571;48.110;-1.706;2023-06-04T07:49:18;18.90;99.90
11035;DHT22;5571;48.110;-1.706;2023-06-04T07:51:43;19.00;99.90
11035;DHT22;5571;48.110;-1.706;2023-06-04T07:54:09;19.00;99.90
11035;DHT22;5571;48.110;-1.706;2023-06-04T07:56:35;19.10;99.90
11035;DHT22;5571;48.110;-1.706;2023-06-04T07:59:01;19.20;99.90
11035;DHT22;5571;48.110;-1.706;2023-06-04T08:01:27;19.30;99.90
11035;DHT22;5571;48.110;-1.706;2023-06-04T08:03:52;19.30;99.90
11035;DHT22;5571;48.110;-1.706;2023-06-04T08:06:18;19.40;99.90
11035;DHT22;5571;48.110;-1.706;2023-06-04T08:08:45;19.50;99.90
11035;DHT22;5571;48.110;-1.706;2023-06-04T08:11:14;19.50;99.90
11035;DHT22;5571;48.110;-1.706;2023-06-04T08:13:40;19.50;99.90
11035;DHT22;5571;48.110;-1.706;2023-06-04T08:16:07;19.50;99.90
11035;DHT22;5571;48.110;-1.706;2023-06-04T08:18:32;19.70;99.90
11035;DHT22;5571;48.110;-1.706;2023-06-04T08:20:58;19.70;99.90
11035;DHT22;5571;48.110;-1.706;2023-06-04T08:23:24;19.70;99.90
11035;DHT22;5571;48.110;-1.706;2023-06-04T08:25:49;19.80;99.90
11035;DHT22;5571;48.110;-1.706;2023-06-04T08:28:15;19.90;99.90
11035;DHT22;5571;48.110;-1.706;2023-06-04T08:30:42;20.00;99.90
11035;DHT22;5571;48.110;-1.706;2023-06-04T08:33:08;20.10;99.90
11035;DHT22;5571;48.110;-1.706;2023-06-04T08:35:33;20.20;99.90
11035;DHT22;5571;48.110;-1.706;2023-06-04T08:37:59;20.30;99.90
11035;DHT22;5571;48.110;-1.706;2023-06-04T08:40:25;20.40;99.90
11035;DHT22;5571;48.110;-1.706;2023-06-04T08:42:51;20.50;99.90
11035;DHT22;5571;48.110;-1.706;2023-06-04T08:45:24;20.50;99.90
11035;DHT22;5571;48.110;-1.706;2023-06-04T08:47:51;20.60;99.90
11035;DHT22;5571;48.110;-1.706;2023-06-04T08:50:18;20.60;99.90
11035;DHT22;5571;48.110;-1.706;2023-06-04T08:52:44;20.70;99.90
11035;DHT22;5571;48.110;-1.706;2023-06-04T08:55:11;20.80;99.90
11035;DHT22;5571;48.110;-1.706;2023-06-04T08:57:39;20.80;99.90
11035;DHT22;5571;48.110;-1.706;2023-06-04T09:00:06;20.90;99.90
11035;DHT22;5571;48.110;-1.706;2023-06-04T09:02:35;20.90;99.90
11035;DHT22;5571;48.110;-1.706;2023-06-04T09:05:03;21.00;99.90
11035;DHT22;5571;48.110;-1.706;2023-06-04T09:07:30;21.00;99.90
11035;DHT22;5571;48.110;-1.706;2023-06-04T09:09:56;21.20;99.90
11035;DHT22;5571;48.110;-1.706;2023-06-04T09:12:24;21.20;99.90
11035;DHT22;5571;48.110;-1.706;2023-06-04T09:14:50;21.30;99.90
11035;DHT22;5571;48.110;-1.706;2023-06-04T09:17:21;21.40;99.90
11035;DHT22;5571;48.110;-1.706;2023-06-04T09:19:47;21.40;99.90
11035;DHT22;5571;48.110;-1.706;2023-06-04T09:22:13;21.50;99.90
11035;DHT22;5571;48.110;-1.706;2023-06-04T09:24:43;21.60;99.90
11035;DHT22;5571;48.110;-1.706;2023-06-04T09:27:12;21.70;99.90
11035;DHT22;5571;48.110;-1.706;2023-06-04T09:29:39;21.80;99.90
11035;DHT22;5571;48.110;-1.706;2023-06-04T09:32:05;21.80;99.90
11035;DHT22;5571;48.110;-1.706;2023-06-04T09:34:31;21.80;99.90
11035;DHT22;5571;48.110;-1.706;2023-06-04T09:36:57;21.90;99.90
11035;DHT22;5571;48.110;-1.706;2023-06-04T09:39:24;21.90;99.90
11035;DHT22;5571;48.110;-1.706;2023-06-04T09:42:02;22.00;99.90
11035;DHT22;5571;48.110;-1.706;2023-06-04T09:44:29;22.00;99.90
11035;DHT22;5571;48.110;-1.706;2023-06-04T09:46:58;22.10;99.90
11035;DHT22;5571;48.110;-1.706;2023-06-04T09:49:24;22.20;99.90
11035;DHT22;5571;48.110;-1.706;2023-06-04T09:51:50;22.30;99.90
11035;DHT22;5571;48.110;-1.706;2023-06-04T09:54:16;22.40;99.90
11035;DHT22;5571;48.110;-1.706;2023-06-04T09:56:42;22.40;99.90
11035;DHT22;5571;48.110;-1.706;2023-06-04T09:59:09;22.50;99.90
11035;DHT22;5571;48.110;-1.706;2023-06-04T10:01:39;22.50;99.90
11035;DHT22;5571;48.110;-1.706;2023-06-04T10:04:08;22.50;99.90
11035;DHT22;5571;48.110;-1.706;2023-06-04T10:06:35;22.50;99.90
11035;DHT22;5571;48.110;-1.706;2023-06-04T10:09:05;22.60;99.90
11035;DHT22;5571;48.110;-1.706;2023-06-04T10:11:35;22.70;99.90
11035;DHT22;5571;48.110;-1.706;2023-06-04T10:14:22;22.80;99.90
11035;DHT22;5571;48.110;-1.706;2023-06-04T10:16:50;22.80;99.90
11035;DHT22;5571;48.110;-1.706;2023-06-04T10:19:17;22.80;99.90
11035;DHT22;5571;48.110;-1.706;2023-06-04T10:21:43;22.80;99.90
11035;DHT22;5571;48.110;-1.706;2023-06-04T10:24:09;22.90;99.90
11035;DHT22;5571;48.110;-1.706;2023-06-04T10:26:36;23.00;99.90
11035;DHT22;5571;48.110;-1.706;2023-06-04T10:29:02;23.10;99.90
11035;DHT22;5571;48.110;-1.706;2023-06-04T10:31:29;23.20;99.90
11035;DHT22;5571;48.110;-1.706;2023-06-04T10:33:56;23.20;99.90
11035;DHT22;5571;48.110;-1.706;2023-06-04T10:36:23;23.20;99.90
11035;DHT22;5571;48.110;-1.706;2023-06-04T10:38:51;23.20;99.90
11035;DHT22;5571;48.110;-1.706;2023-06-04T10:41:18;23.30;99.90
11035;DHT22;5571;48.110;-1.706;2023-06-04T10:43:51;23.30;99.90
11035;DHT22;5571;48.110;-1.706;2023-06-04T10:46:19;23.40;99.90
11035;DHT22;5571;48.110;-1.706;2023-06-04T10:48:52;23.50;99.90
11035;DHT22;5571;48.110;-1.706;2023-06-04T10:51:32;23.50;99.90
11035;DHT22;5571;48.110;-1.706;2023-06-04T10:54:00;23.60;99.90
11035;DHT22;5571;48.110;-1.706;2023-06-04T10:56:27;23.60;99.90
11035;DHT22;5571;48.110;-1.706;2023-06-04T10:58:53;23.70;99.90
11035;DHT22;5571;48.110;-1.706;2023-06-04T11:01:28;23.80;99.90
11035;DHT22;5571;48.110;-1.706;2023-06-04T11:03:55;23.90;99.90
11035;DHT22;5571;48.110;-1.706;2023-06-04T11:06:22;24.00;99.90
11035;DHT22;5571;48.110;-1.706;2023-06-04T11:08:48;24.10;99.90
11035;DHT22;5571;48.110;-1.706;2023-06-04T11:11:17;24.10;99.90
11035;DHT22;5571;48.110;-1.706;2023-06-04T11:13:43;24.20;99.90
11035;DHT22;5571;48.110;-1.706;2023-06-04T11:16:19;24.30;99.90
11035;DHT22;5571;48.110;-1.706;2023-06-04T11:18:58;24.50;99.90
11035;DHT22;5571;48.110;-1.706;2023-06-04T11:21:24;24.50;99.90
11035;DHT22;5571;48.110;-1.706;2023-06-04T11:23:57;24.60;99.90
11035;DHT22;5571;48.110;-1.706;2023-06-04T11:26:28;24.60;99.90
11035;DHT22;5571;48.110;-1.706;2023-06-04T11:28:54;24.80;99.40
11035;DHT22;5571;48.110;-1.706;2023-06-04T11:31:20;24.80;99.40
11035;DHT22;5571;48.110;-1.706;2023-06-04T11:33:47;25.00;99.00
11035;DHT22;5571;48.110;-1.706;2023-06-04T11:36:24;25.00;99.30
11035;DHT22;5571;48.110;-1.706;2023-06-04T11:39:09;25.10;99.90
11035;DHT22;5571;48.110;-1.706;2023-06-04T11:41:36;25.20;99.90
11035;DHT22;5571;48.110;-1.706;2023-06-04T11:44:03;25.30;99.30
11035;DHT22;5571;48.110;-1.706;2023-06-04T11:46:33;25.30;99.40
11035;DHT22;5571;48.110;-1.706;2023-06-04T11:48:59;25.40;99.80
11035;DHT22;5571;48.110;-1.706;2023-06-04T11:51:26;25.40;99.90
11035;DHT22;5571;48.110;-1.706;2023-06-04T11:53:52;25.50;99.80
11035;DHT22;5571;48.110;-1.706;2023-06-04T11:56:18;25.60;99.10
11035;DHT22;5571;48.110;-1.706;2023-06-04T11:58:43;25.60;99.50
11035;DHT22;5571;48.110;-1.706;2023-06-04T12:01:11;25.70;99.00
11035;DHT22;5571;48.110;-1.706;2023-06-04T12:03:42;25.70;98.60
11035;DHT22;5571;48.110;-1.706;2023-06-04T12:06:15;25.90;99.20
11035;DHT22;5571;48.110;-1.706;2023-06-04T12:11:32;26.10;99.20
11035;DHT22;5571;48.110;-1.706;2023-06-04T12:14:06;26.10;99.00
11035;DHT22;5571;48.110;-1.706;2023-06-04T12:16:33;26.30;99.50
11035;DHT22;5571;48.110;-1.706;2023-06-04T12:19:12;26.40;99.00
11035;DHT22;5571;48.110;-1.706;2023-06-04T12:21:38;26.60;99.30
11035;DHT22;5571;48.110;-1.706;2023-06-04T12:26:33;26.60;99.10
11035;DHT22;5571;48.110;-1.706;2023-06-04T12:29:16;26.60;98.50
11035;DHT22;5571;48.110;-1.706;2023-06-04T12:31:46;26.60;98.50
11035;DHT22;5571;48.110;-1.706;2023-06-04T12:34:13;26.80;98.50
11035;DHT22;5571;48.110;-1.706;2023-06-04T12:36:39;27.00;97.70
11035;DHT22;5571;48.110;-1.706;2023-06-04T12:39:06;27.00;96.50
11035;DHT22;5571;48.110;-1.706;2023-06-04T12:41:33;27.00;96.40
11035;DHT22;5571;48.110;-1.706;2023-06-04T12:43:59;27.00;97.30
11035;DHT22;5571;48.110;-1.706;2023-06-04T12:46:27;26.90;96.60
11035;DHT22;5571;48.110;-1.706;2023-06-04T12:48:53;27.00;97.20
11035;DHT22;5571;48.110;-1.706;2023-06-04T12:51:20;27.00;96.50
11035;DHT22;5571;48.110;-1.706;2023-06-04T12:53:46;27.10;96.30
11035;DHT22;5571;48.110;-1.706;2023-06-04T12:56:12;27.10;96.20
11035;DHT22;5571;48.110;-1.706;2023-06-04T12:58:38;27.00;95.90
11035;DHT22;5571;48.110;-1.706;2023-06-04T13:01:04;27.00;96.20
11035;DHT22;5571;48.110;-1.706;2023-06-04T13:03:31;26.90;96.30
11035;DHT22;5571;48.110;-1.706;2023-06-04T13:05:57;27.00;96.30
11035;DHT22;5571;48.110;-1.706;2023-06-04T13:08:23;26.90;97.00
11035;DHT22;5571;48.110;-1.706;2023-06-04T13:10:51;26.80;97.40
11035;DHT22;5571;48.110;-1.706;2023-06-04T13:13:17;27.00;97.30
11035;DHT22;5571;48.110;-1.706;2023-06-04T13:15:44;27.00;97.20
11035;DHT22;5571;48.110;-1.706;2023-06-04T13:18:10;27.20;98.00
11035;DHT22;5571;48.110;-1.706;2023-06-04T13:20:36;27.30;97.70
11035;DHT22;5571;48.110;-1.706;2023-06-04T13:23:02;27.50;97.60
11035;DHT22;5571;48.110;-1.706;2023-06-04T13:25:28;27.60;97.80
11035;DHT22;5571;48.110;-1.706;2023-06-04T13:27:55;27.60;97.10
11035;DHT22;5571;48.110;-1.706;2023-06-04T13:30:21;27.70;97.10
11035;DHT22;5571;48.110;-1.706;2023-06-04T13:32:48;27.70;96.20
11035;DHT22;5571;48.110;-1.706;2023-06-04T13:35:13;27.50;96.10
11035;DHT22;5571;48.110;-1.706;2023-06-04T13:37:39;27.60;96.30
11035;DHT22;5571;48.110;-1.706;2023-06-04T13:40:06;27.70;96.30
11035;DHT22;5571;48.110;-1.706;2023-06-04T13:42:31;27.80;96.50
11035;DHT22;5571;48.110;-1.706;2023-06-04T13:44:57;27.70;96.40
11035;DHT22;5571;48.110;-1.706;2023-06-04T13:47:24;27.80;96.50
11035;DHT22;5571;48.110;-1.706;2023-06-04T13:49:50;28.00;97.10
11035;DHT22;5571;48.110;-1.706;2023-06-04T13:52:16;28.20;96.20
11035;DHT22;5571;48.110;-1.706;2023-06-04T13:54:42;28.20;95.50
11035;DHT22;5571;48.110;-1.706;2023-06-04T13:57:07;28.20;95.40
11035;DHT22;5571;48.110;-1.706;2023-06-04T13:59:37;28.10;95.30
11035;DHT22;5571;48.110;-1.706;2023-06-04T14:02:02;28.10;95.20
11035;DHT22;5571;48.110;-1.706;2023-06-04T14:04:28;28.00;95.10
11035;DHT22;5571;48.110;-1.706;2023-06-04T14:06:53;27.90;94.70
11035;DHT22;5571;48.110;-1.706;2023-06-04T14:09:19;28.00;94.60
11035;DHT22;5571;48.110;-1.706;2023-06-04T14:11:45;27.90;95.20
11035;DHT22;5571;48.110;-1.706;2023-06-04T14:14:18;28.00;95.70
11035;DHT22;5571;48.110;-1.706;2023-06-04T14:16:45;28.00;95.40
11035;DHT22;5571;48.110;-1.706;2023-06-04T14:19:11;28.30;95.10
11035;DHT22;5571;48.110;-1.706;2023-06-04T14:21:37;28.40;94.60
11035;DHT22;5571;48.110;-1.706;2023-06-04T14:24:03;28.50;94.40
11035;DHT22;5571;48.110;-1.706;2023-06-04T14:26:28;28.60;94.60
11035;DHT22;5571;48.110;-1.706;2023-06-04T14:28:55;28.60;93.80
11035;DHT22;5571;48.110;-1.706;2023-06-04T14:31:20;28.60;92.80
11035;DHT22;5571;48.110;-1.706;2023-06-04T14:33:47;28.60;93.00
11035;DHT22;5571;48.110;-1.706;2023-06-04T14:36:12;28.50;92.80
11035;DHT22;5571;48.110;-1.706;2023-06-04T14:38:38;28.50;93.40
11035;DHT22;5571;48.110;-1.706;2023-06-04T14:41:04;28.70;93.50
11035;DHT22;5571;48.110;-1.706;2023-06-04T14:43:30;28.80;93.50
11035;DHT22;5571;48.110;-1.706;2023-06-04T14:45:55;28.90;92.90
11035;DHT22;5571;48.110;-1.706;2023-06-04T14:48:22;29.00;92.60
11035;DHT22;5571;48.110;-1.706;2023-06-04T14:50:55;29.10;92.70
11035;DHT22;5571;48.110;-1.706;2023-06-04T14:53:21;29.20;92.30
11035;DHT22;5571;48.110;-1.706;2023-06-04T14:55:47;29.20;92.60
11035;DHT22;5571;48.110;-1.706;2023-06-04T14:58:13;29.40;93.10
11035;DHT22;5571;48.110;-1.706;2023-06-04T15:00:39;29.30;92.60
11035;DHT22;5571;48.110;-1.706;2023-06-04T15:03:05;28.90;92.20
11035;DHT22;5571;48.110;-1.706;2023-06-04T15:05:31;28.70;92.10
11035;DHT22;5571;48.110;-1.706;2023-06-04T15:07:57;28.40;92.20
11035;DHT22;5571;48.110;-1.706;2023-06-04T15:10:25;28.00;92.20
11035;DHT22;5571;48.110;-1.706;2023-06-04T15:12:51;27.90;92.50
11035;DHT22;5571;48.110;-1.706;2023-06-04T15:15:17;27.90;92.50
11035;DHT22;5571;48.110;-1.706;2023-06-04T15:17:43;28.10;92.20
11035;DHT22;5571;48.110;-1.706;2023-06-04T15:20:08;28.30;92.50
11035;DHT22;5571;48.110;-1.706;2023-06-04T15:22:35;28.50;92.70
11035;DHT22;5571;48.110;-1.706;2023-06-04T15:25:00;28.70;93.00
11035;DHT22;5571;48.110;-1.706;2023-06-04T15:27:26;28.90;93.00
11035;DHT22;5571;48.110;-1.706;2023-06-04T15:29:52;28.80;91.70
11035;DHT22;5571;48.110;-1.706;2023-06-04T15:32:18;28.40;92.30
11035;DHT22;5571;48.110;-1.706;2023-06-04T15:34:43;28.30;92.70
11035;DHT22;5571;48.110;-1.706;2023-06-04T15:37:09;28.40;92.60
11035;DHT22;5571;48.110;-1.706;2023-06-04T15:39:35;28.40;92.30
11035;DHT22;5571;48.110;-1.706;2023-06-04T15:42:00;28.50;92.00
11035;DHT22;5571;48.110;-1.706;2023-06-04T15:44:27;28.50;91.60